sensor_id;sensor_type;location;lat;lon;timestamp;P1;durP1;ratioP1;P2;durP2;ratioP2
56307;SDS011;42217;50.422;7.210;2023-05-10T00:00:12;177.48;;;169.73;;
56307;SDS011;42217;50.422;7.210;2023-05-10T00:02:38;185.07;;;176.93;;
56307;SDS011;42217;50.422;7.210;2023-05-10T00:05:05;198.70;;;189.98;;
56307;SDS011;42217;50.422;7.210;2023-05-10T00:07:31;194.52;;;185.98;;
56307;SDS011;42217;50.422;7.210;2023-05-10T00:09:57;185.80;;;177.63;;
56307;SDS011;42217;50.422;7.210;2023-05-10T00:12:23;200.52;;;191.73;;
56307;SDS011;42217;50.422;7.210;2023-05-10T00:14:48;192.40;;;183.93;;
56307;SDS011;42217;50.422;7.210;2023-05-10T00:17:14;198.05;;;189.35;;
56307;SDS011;42217;50.422;7.210;2023-05-10T00:19:39;197.15;;;188.23;;
56307;SDS011;42217;50.422;7.210;2023-05-10T00:22:05;181.07;;;173.13;;
56307;SDS011;42217;50.422;7.210;2023-05-10T00:24:31;177.85;;;170.10;;
56307;SDS011;42217;50.422;7.210;2023-05-10T00:26:56;162.40;;;155.30;;
56307;SDS011;42217;50.422;7.210;2023-05-10T00:29:22;182.85;;;174.60;;
56307;SDS011;42217;50.422;7.210;2023-05-10T00:31:48;194.98;;;186.43;;
56307;SDS011;42217;50.422;7.210;2023-05-10T00:34:13;167.75;;;160.30;;
56307;SDS011;42217;50.422;7.210;2023-05-10T00:36:39;166.52;;;159.10;;
56307;SDS011;42217;50.422;7.210;2023-05-10T00:39:05;213.60;;;203.48;;
56307;SDS011;42217;50.422;7.210;2023-05-10T00:41:31;413.20;;;390.33;;
56307;SDS011;42217;50.422;7.210;2023-05-10T00:43:57;158.38;;;151.38;;
56307;SDS011;42217;50.422;7.210;2023-05-10T00:46:23;202.73;;;193.73;;
56307;SDS011;42217;50.422;7.210;2023-05-10T00:48:50;158.02;;;151.00;;
56307;SDS011;42217;50.422;7.210;2023-05-10T00:51:16;166.27;;;158.77;;
56307;SDS011;42217;50.422;7.210;2023-05-10T00:53:41;175.13;;;167.27;;
56307;SDS011;42217;50.422;7.210;2023-05-10T00:56:10;221.68;;;211.35;;
56307;SDS011;42217;50.422;7.210;2023-05-10T00:58:37;168.80;;;161.37;;
56307;SDS011;42217;50.422;7.210;2023-05-10T01:01:03;170.27;;;162.70;;
56307;SDS011;42217;50.422;7.210;2023-05-10T01:03:30;184.50;;;176.38;;
56307;SDS011;42217;50.422;7.210;2023-05-10T01:05:57;181.50;;;173.50;;
56307;SDS011;42217;50.422;7.210;2023-05-10T01:08:22;229.82;;;218.82;;
56307;SDS011;42217;50.422;7.210;2023-05-10T01:10:48;175.27;;;167.63;;
56307;SDS011;42217;50.422;7.210;2023-05-10T01:13:17;167.90;;;160.55;;
56307;SDS011;42217;50.422;7.210;2023-05-10T01:15:51;170.88;;;163.30;;
56307;SDS011;42217;50.422;7.210;2023-05-10T01:18:17;171.27;;;163.55;;
56307;SDS011;42217;50.422;7.210;2023-05-10T01:20:46;166.70;;;159.38;;
56307;SDS011;42217;50.422;7.210;2023-05-10T01:26:17;164.32;;;157.02;;
56307;SDS011;42217;50.422;7.210;2023-05-10T01:34:35;170.30;;;162.88;;
56307;SDS011;42217;50.422;7.210;2023-05-10T01:39:44;139.35;;;133.23;;
56307;SDS011;42217;50.422;7.210;2023-05-10T01:42:17;164.65;;;157.40;;
56307;SDS011;42217;50.422;7.210;2023-05-10T01:44:48;193.23;;;184.73;;
56307;SDS011;42217;50.422;7.210;2023-05-10T01:47:30;214.18;;;204.68;;
56307;SDS011;42217;50.422;7.210;2023-05-10T01:50:04;192.00;;;183.55;;
56307;SDS011;42217;50.422;7.210;2023-05-10T01:52:38;200.02;;;191.10;;
56307;SDS011;42217;50.422;7.210;2023-05-10T01:55:09;236.52;;;225.82;;
56307;SDS011;42217;50.422;7.210;2023-05-10T01:57:39;212.77;;;203.32;;
56307;SDS011;42217;50.422;7.210;2023-05-10T02:00:07;257.60;;;246.25;;
56307;SDS011;42217;50.422;7.210;2023-05-10T02:02:36;250.45;;;239.07;;
56307;SDS011;42217;50.422;7.210;2023-05-10T02:05:05;249.45;;;238.40;;
56307;SDS011;42217;50.422;7.210;2023-05-10T02:07:32;269.77;;;257.77;;
56307;SDS011;42217;50.422;7.210;2023-05-10T02:10:04;234.98;;;224.30;;
56307;SDS011;42217;50.422;7.210;2023-05-10T02:12:31;246.95;;;235.80;;
56307;SDS011;42217;50.422;7.210;2023-05-10T02:15:00;253.45;;;242.02;;
56307;SDS011;42217;50.422;7.210;2023-05-10T02:17:29;271.92;;;259.95;;
56307;SDS011;42217;50.422;7.210;2023-05-10T02:19:57;263.88;;;251.85;;
56307;SDS011;42217;50.422;7.210;2023-05-10T02:22:25;263.95;;;252.02;;
56307;SDS011;42217;50.422;7.210;2023-05-10T02:24:53;245.35;;;234.52;;
56307;SDS011;42217;50.422;7.210;2023-05-10T02:27:22;220.88;;;211.07;;
56307;SDS011;42217;50.422;7.210;2023-05-10T02:29:50;209.93;;;200.68;;
56307;SDS011;42217;50.422;7.210;2023-05-10T02:32:17;214.60;;;205.02;;
56307;SDS011;42217;50.422;7.210;2023-05-10T02:34:44;303.08;;;288.90;;
56307;SDS011;42217;50.422;7.210;2023-05-10T02:37:11;194.93;;;186.10;;
56307;SDS011;42217;50.422;7.210;2023-05-10T02:39:41;200.55;;;191.65;;
56307;SDS011;42217;50.422;7.210;2023-05-10T02:42:14;187.05;;;178.63;;
56307;SDS011;42217;50.422;7.210;2023-05-10T02:44:43;184.77;;;176.63;;
56307;SDS011;42217;50.422;7.210;2023-05-10T02:47:12;202.32;;;193.43;;
56307;SDS011;42217;50.422;7.210;2023-05-10T02:49:38;216.03;;;206.43;;
56307;SDS011;42217;50.422;7.210;2023-05-10T02:52:05;221.47;;;211.70;;
56307;SDS011;42217;50.422;7.210;2023-05-10T02:54:37;202.38;;;193.18;;
56307;SDS011;42217;50.422;7.210;2023-05-10T02:57:16;178.48;;;170.40;;
56307;SDS011;42217;50.422;7.210;2023-05-10T02:59:47;188.52;;;180.15;;
56307;SDS011;42217;50.422;7.210;2023-05-10T03:02:13;206.60;;;197.40;;
56307;SDS011;42217;50.422;7.210;2023-05-10T03:04:38;198.65;;;189.68;;
56307;SDS011;42217;50.422;7.210;2023-05-10T03:07:04;209.90;;;200.63;;
56307;SDS011;42217;50.422;7.210;2023-05-10T03:09:30;203.63;;;194.38;;
56307;SDS011;42217;50.422;7.210;2023-05-10T03:14:45;211.20;;;201.80;;
56307;SDS011;42217;50.422;7.210;2023-05-10T03:20:08;193.00;;;183.87;;
56307;SDS011;42217;50.422;7.210;2023-05-10T03:22:47;202.75;;;193.77;;
56307;SDS011;42217;50.422;7.210;2023-05-10T03:25:16;187.07;;;178.80;;
56307;SDS011;42217;50.422;7.210;2023-05-10T03:27:43;199.80;;;190.85;;
56307;SDS011;42217;50.422;7.210;2023-05-10T03:30:11;190.52;;;181.90;;
56307;SDS011;42217;50.422;7.210;2023-05-10T03:32:37;198.65;;;189.55;;
56307;SDS011;42217;50.422;7.210;2023-05-10T03:35:09;227.60;;;217.32;;
56307;SDS011;42217;50.422;7.210;2023-05-10T03:37:37;297.80;;;282.45;;
56307;SDS011;42217;50.422;7.210;2023-05-10T03:40:03;317.90;;;301.38;;
56307;SDS011;42217;50.422;7.210;2023-05-10T03:42:29;205.77;;;196.55;;
56307;SDS011;42217;50.422;7.210;2023-05-10T03:44:55;334.27;;;315.52;;
56307;SDS011;42217;50.422;7.210;2023-05-10T03:47:21;211.73;;;202.30;;
56307;SDS011;42217;50.422;7.210;2023-05-10T03:49:47;341.98;;;323.80;;
56307;SDS011;42217;50.422;7.210;2023-05-10T03:52:12;244.45;;;232.52;;
56307;SDS011;42217;50.422;7.210;2023-05-10T03:54:38;209.63;;;200.10;;
56307;SDS011;42217;50.422;7.210;2023-05-10T03:57:03;175.13;;;167.13;;
56307;SDS011;42217;50.422;7.210;2023-05-10T03:59:29;165.00;;;157.60;;
56307;SDS011;42217;50.422;7.210;2023-05-10T04:01:55;181.20;;;173.13;;
56307;SDS011;42217;50.422;7.210;2023-05-10T04:04:21;169.18;;;161.50;;
56307;SDS011;42217;50.422;7.210;2023-05-10T04:06:48;190.10;;;181.48;;
56307;SDS011;42217;50.422;7.210;2023-05-10T04:09:14;179.13;;;171.20;;
56307;SDS011;42217;50.422;7.210;2023-05-10T04:11:40;196.90;;;187.87;;
56307;SDS011;42217;50.422;7.210;2023-05-10T04:14:05;184.05;;;175.73;;
56307;SDS011;42217;50.422;7.210;2023-05-10T04:16:31;236.73;;;225.83;;
56307;SDS011;42217;50.422;7.210;2023-05-10T04:18:57;221.65;;;211.68;;
56307;SDS011;42217;50.422;7.210;2023-05-10T04:21:22;186.77;;;178.43;;
56307;SDS011;42217;50.422;7.210;2023-05-10T04:23:48;167.18;;;159.73;;
56307;SDS011;42217;50.422;7.210;2023-05-10T04:26:14;218.65;;;208.77;;
56307;SDS011;42217;50.422;7.210;2023-05-10T04:28:39;241.75;;;229.18;;
56307;SDS011;42217;50.422;7.210;2023-05-10T04:31:06;255.80;;;243.93;;
56307;SDS011;42217;50.422;7.210;2023-05-10T04:33:33;270.95;;;257.77;;
56307;SDS011;42217;50.422;7.210;2023-05-10T04:36:00;464.02;;;433.73;;
56307;SDS011;42217;50.422;7.210;2023-05-10T04:38:26;261.53;;;247.13;;
56307;SDS011;42217;50.422;7.210;2023-05-10T04:40:52;249.95;;;238.15;;
56307;SDS011;42217;50.422;7.210;2023-05-10T04:43:18;298.45;;;282.88;;
56307;SDS011;42217;50.422;7.210;2023-05-10T04:45:45;165.68;;;158.15;;
56307;SDS011;42217;50.422;7.210;2023-05-10T04:48:11;185.20;;;176.90;;
56307;SDS011;42217;50.422;7.210;2023-05-10T04:50:37;296.42;;;281.30;;
56307;SDS011;42217;50.422;7.210;2023-05-10T04:53:04;248.10;;;236.38;;
56307;SDS011;42217;50.422;7.210;2023-05-10T04:55:30;241.75;;;230.25;;
56307;SDS011;42217;50.422;7.210;2023-05-10T04:57:55;286.75;;;273.25;;
56307;SDS011;42217;50.422;7.210;2023-05-10T05:00:22;333.85;;;316.70;;
56307;SDS011;42217;50.422;7.210;2023-05-10T05:02:48;235.45;;;224.80;;
56307;SDS011;42217;50.422;7.210;2023-05-10T05:05:14;253.67;;;241.83;;
56307;SDS011;42217;50.422;7.210;2023-05-10T05:07:39;224.83;;;214.83;;
56307;SDS011;42217;50.422;7.210;2023-05-10T05:10:06;258.60;;;246.32;;
56307;SDS011;42217;50.422;7.210;2023-05-10T05:12:32;240.97;;;230.07;;
56307;SDS011;42217;50.422;7.210;2023-05-10T05:14:58;300.73;;;286.38;;
56307;SDS011;42217;50.422;7.210;2023-05-10T05:17:24;223.15;;;213.10;;
56307;SDS011;42217;50.422;7.210;2023-05-10T05:19:49;263.50;;;250.20;;
56307;SDS011;42217;50.422;7.210;2023-05-10T05:22:15;286.95;;;272.77;;
56307;SDS011;42217;50.422;7.210;2023-05-10T05:24:41;355.83;;;336.10;;
56307;SDS011;42217;50.422;7.210;2023-05-10T05:27:06;302.17;;;287.45;;
56307;SDS011;42217;50.422;7.210;2023-05-10T05:29:32;216.82;;;206.77;;
56307;SDS011;42217;50.422;7.210;2023-05-10T05:31:58;219.40;;;208.73;;
56307;SDS011;42217;50.422;7.210;2023-05-10T05:34:24;398.25;;;375.90;;
56307;SDS011;42217;50.422;7.210;2023-05-10T05:36:50;323.87;;;308.20;;
56307;SDS011;42217;50.422;7.210;2023-05-10T05:39:16;215.48;;;205.77;;
56307;SDS011;42217;50.422;7.210;2023-05-10T05:41:42;272.88;;;259.10;;
56307;SDS011;42217;50.422;7.210;2023-05-10T05:44:08;228.45;;;217.85;;
56307;SDS011;42217;50.422;7.210;2023-05-10T05:46:34;293.07;;;278.13;;
56307;SDS011;42217;50.422;7.210;2023-05-10T05:49:00;193.23;;;184.43;;
56307;SDS011;42217;50.422;7.210;2023-05-10T05:51:26;208.13;;;198.57;;
56307;SDS011;42217;50.422;7.210;2023-05-10T05:53:51;304.38;;;289.88;;
56307;SDS011;42217;50.422;7.210;2023-05-10T05:56:17;339.27;;;321.48;;
56307;SDS011;42217;50.422;7.210;2023-05-10T05:58:49;302.45;;;287.08;;
56307;SDS011;42217;50.422;7.210;2023-05-10T06:01:17;324.73;;;307.95;;
56307;SDS011;42217;50.422;7.210;2023-05-10T06:03:43;538.78;;;504.90;;
56307;SDS011;42217;50.422;7.210;2023-05-10T06:06:08;189.37;;;180.60;;
56307;SDS011;42217;50.422;7.210;2023-05-10T06:08:34;256.13;;;243.95;;
56307;SDS011;42217;50.422;7.210;2023-05-10T06:11:00;299.55;;;285.23;;
56307;SDS011;42217;50.422;7.210;2023-05-10T06:13:26;406.48;;;383.42;;
56307;SDS011;42217;50.422;7.210;2023-05-10T06:15:57;259.85;;;247.25;;
56307;SDS011;42217;50.422;7.210;2023-05-10T06:18:23;252.75;;;240.57;;
56307;SDS011;42217;50.422;7.210;2023-05-10T06:20:49;260.90;;;248.40;;
56307;SDS011;42217;50.422;7.210;2023-05-10T06:23:15;237.52;;;226.45;;
56307;SDS011;42217;50.422;7.210;2023-05-10T06:25:41;332.27;;;315.30;;
56307;SDS011;42217;50.422;7.210;2023-05-10T06:28:06;492.15;;;461.95;;
56307;SDS011;42217;50.422;7.210;2023-05-10T06:30:32;420.88;;;398.52;;
56307;SDS011;42217;50.422;7.210;2023-05-10T06:32:57;307.27;;;292.60;;
56307;SDS011;42217;50.422;7.210;2023-05-10T06:35:23;475.55;;;450.58;;
56307;SDS011;42217;50.422;7.210;2023-05-10T06:37:49;306.50;;;292.23;;
56307;SDS011;42217;50.422;7.210;2023-05-10T06:40:15;393.70;;;372.77;;
56307;SDS011;42217;50.422;7.210;2023-05-10T06:42:41;346.40;;;329.10;;
56307;SDS011;42217;50.422;7.210;2023-05-10T06:45:07;298.73;;;284.00;;
56307;SDS011;42217;50.422;7.210;2023-05-10T06:47:33;263.92;;;251.85;;
56307;SDS011;42217;50.422;7.210;2023-05-10T06:49:59;312.10;;;296.00;;
56307;SDS011;42217;50.422;7.210;2023-05-10T06:52:25;517.92;;;488.92;;
56307;SDS011;42217;50.422;7.210;2023-05-10T06:54:50;463.88;;;438.52;;
56307;SDS011;42217;50.422;7.210;2023-05-10T06:57:16;269.13;;;256.75;;
56307;SDS011;42217;50.422;7.210;2023-05-10T06:59:42;287.25;;;273.92;;
56307;SDS011;42217;50.422;7.210;2023-05-10T07:02:08;273.30;;;260.80;;
56307;SDS011;42217;50.422;7.210;2023-05-10T07:04:34;376.13;;;356.88;;
56307;SDS011;42217;50.422;7.210;2023-05-10T07:06:59;377.52;;;356.92;;
56307;SDS011;42217;50.422;7.210;2023-05-10T07:09:25;567.33;;;532.40;;
56307;SDS011;42217;50.422;7.210;2023-05-10T07:11:51;458.70;;;432.77;;
56307;SDS011;42217;50.422;7.210;2023-05-10T07:14:17;456.58;;;431.13;;
56307;SDS011;42217;50.422;7.210;2023-05-10T07:16:42;380.15;;;361.30;;
56307;SDS011;42217;50.422;7.210;2023-05-10T07:19:09;506.10;;;478.55;;
56307;SDS011;42217;50.422;7.210;2023-05-10T07:21:35;390.30;;;369.60;;
56307;SDS011;42217;50.422;7.210;2023-05-10T07:24:01;430.92;;;407.10;;
56307;SDS011;42217;50.422;7.210;2023-05-10T07:26:27;277.40;;;264.38;;
56307;SDS011;42217;50.422;7.210;2023-05-10T07:28:53;412.73;;;390.48;;
56307;SDS011;42217;50.422;7.210;2023-05-10T07:31:20;311.75;;;297.42;;
56307;SDS011;42217;50.422;7.210;2023-05-10T07:33:45;482.65;;;455.85;;
56307;SDS011;42217;50.422;7.210;2023-05-10T07:36:11;493.33;;;464.30;;
56307;SDS011;42217;50.422;7.210;2023-05-10T07:38:37;570.45;;;535.63;;
56307;SDS011;42217;50.422;7.210;2023-05-10T07:41:03;282.48;;;269.38;;
56307;SDS011;42217;50.422;7.210;2023-05-10T07:43:28;326.90;;;311.67;;
56307;SDS011;42217;50.422;7.210;2023-05-10T07:45:54;313.83;;;299.40;;
56307;SDS011;42217;50.422;7.210;2023-05-10T07:48:22;443.80;;;420.45;;
56307;SDS011;42217;50.422;7.210;2023-05-10T07:50:48;424.02;;;401.88;;
56307;SDS011;42217;50.422;7.210;2023-05-10T07:53:13;651.83;;;611.33;;
56307;SDS011;42217;50.422;7.210;2023-05-10T07:55:39;362.08;;;345.00;;
56307;SDS011;42217;50.422;7.210;2023-05-10T07:58:04;343.20;;;327.23;;
56307;SDS011;42217;50.422;7.210;2023-05-10T08:00:31;469.48;;;444.13;;
56307;SDS011;42217;50.422;7.210;2023-05-10T08:02:56;394.00;;;375.30;;
56307;SDS011;42217;50.422;7.210;2023-05-10T08:05:22;560.92;;;529.85;;
56307;SDS011;42217;50.422;7.210;2023-05-10T08:07:48;539.25;;;510.27;;
56307;SDS011;42217;50.422;7.210;2023-05-10T08:10:14;626.28;;;588.42;;
56307;SDS011;42217;50.422;7.210;2023-05-10T08:12:39;507.25;;;480.08;;
56307;SDS011;42217;50.422;7.210;2023-05-10T08:15:05;391.90;;;373.30;;
56307;SDS011;42217;50.422;7.210;2023-05-10T08:17:32;487.42;;;462.23;;
56307;SDS011;42217;50.422;7.210;2023-05-10T08:19:58;569.83;;;537.08;;
56307;SDS011;42217;50.422;7.210;2023-05-10T08:22:24;462.67;;;437.52;;
56307;SDS011;42217;50.422;7.210;2023-05-10T08:24:49;336.88;;;321.05;;
56307;SDS011;42217;50.422;7.210;2023-05-10T08:27:15;437.27;;;415.60;;
56307;SDS011;42217;50.422;7.210;2023-05-10T08:29:41;304.33;;;289.67;;
56307;SDS011;42217;50.422;7.210;2023-05-10T08:32:06;403.52;;;382.48;;
56307;SDS011;42217;50.422;7.210;2023-05-10T08:34:32;288.48;;;274.55;;
56307;SDS011;42217;50.422;7.210;2023-05-10T08:36:58;307.67;;;292.65;;
56307;SDS011;42217;50.422;7.210;2023-05-10T08:39:23;268.45;;;255.80;;
56307;SDS011;42217;50.422;7.210;2023-05-10T08:41:50;333.00;;;317.60;;
56307;SDS011;42217;50.422;7.210;2023-05-10T08:44:18;308.92;;;293.45;;
56307;SDS011;42217;50.422;7.210;2023-05-10T08:46:46;360.27;;;342.00;;
56307;SDS011;42217;50.422;7.210;2023-05-10T08:49:16;269.48;;;256.67;;
56307;SDS011;42217;50.422;7.210;2023-05-10T08:51:47;303.27;;;288.38;;
56307;SDS011;42217;50.422;7.210;2023-05-10T08:54:16;192.93;;;183.75;;
56307;SDS011;42217;50.422;7.210;2023-05-10T08:56:42;214.07;;;204.52;;
56307;SDS011;42217;50.422;7.210;2023-05-10T08:59:08;195.60;;;186.52;;
56307;SDS011;42217;50.422;7.210;2023-05-10T09:01:35;229.88;;;219.35;;
56307;SDS011;42217;50.422;7.210;2023-05-10T09:04:01;222.25;;;211.60;;
56307;SDS011;42217;50.422;7.210;2023-05-10T09:06:27;177.50;;;169.32;;
56307;SDS011;42217;50.422;7.210;2023-05-10T09:08:54;204.00;;;194.45;;
56307;SDS011;42217;50.422;7.210;2023-05-10T09:11:20;383.50;;;363.02;;
56307;SDS011;42217;50.422;7.210;2023-05-10T09:13:46;150.48;;;143.77;;
56307;SDS011;42217;50.422;7.210;2023-05-10T09:16:13;153.05;;;146.23;;
56307;SDS011;42217;50.422;7.210;2023-05-10T09:18:39;186.95;;;178.32;;
56307;SDS011;42217;50.422;7.210;2023-05-10T09:21:05;147.50;;;141.00;;
56307;SDS011;42217;50.422;7.210;2023-05-10T09:23:30;261.70;;;248.82;;
56307;SDS011;42217;50.422;7.210;2023-05-10T09:26:06;156.95;;;149.95;;
56307;SDS011;42217;50.422;7.210;2023-05-10T09:28:33;167.77;;;160.25;;
56307;SDS011;42217;50.422;7.210;2023-05-10T09:31:01;218.07;;;207.82;;
56307;SDS011;42217;50.422;7.210;2023-05-10T09:33:27;168.45;;;160.88;;
56307;SDS011;42217;50.422;7.210;2023-05-10T09:35:53;127.60;;;121.97;;
56307;SDS011;42217;50.422;7.210;2023-05-10T09:38:18;141.15;;;134.93;;
56307;SDS011;42217;50.422;7.210;2023-05-10T09:40:50;240.45;;;229.25;;
56307;SDS011;42217;50.422;7.210;2023-05-10T09:43:21;128.02;;;122.40;;
56307;SDS011;42217;50.422;7.210;2023-05-10T09:45:47;156.45;;;149.48;;
56307;SDS011;42217;50.422;7.210;2023-05-10T09:48:16;268.25;;;255.23;;
56307;SDS011;42217;50.422;7.210;2023-05-10T09:50:42;150.98;;;144.23;;
56307;SDS011;42217;50.422;7.210;2023-05-10T09:53:08;278.95;;;265.40;;
56307;SDS011;42217;50.422;7.210;2023-05-10T09:55:40;166.38;;;159.05;;
56307;SDS011;42217;50.422;7.210;2023-05-10T09:58:10;143.02;;;136.70;;
56307;SDS011;42217;50.422;7.210;2023-05-10T10:00:36;158.75;;;151.52;;
56307;SDS011;42217;50.422;7.210;2023-05-10T10:03:03;191.38;;;182.80;;
56307;SDS011;42217;50.422;7.210;2023-05-10T10:05:33;156.88;;;149.95;;
56307;SDS011;42217;50.422;7.210;2023-05-10T10:08:00;177.13;;;169.27;;
56307;SDS011;42217;50.422;7.210;2023-05-10T10:10:30;202.60;;;193.02;;
56307;SDS011;42217;50.422;7.210;2023-05-10T10:12:57;204.25;;;195.20;;
56307;SDS011;42217;50.422;7.210;2023-05-10T10:15:24;192.98;;;184.27;;
56307;SDS011;42217;50.422;7.210;2023-05-10T10:17:51;291.55;;;278.25;;
56307;SDS011;42217;50.422;7.210;2023-05-10T10:20:18;243.57;;;232.65;;
56307;SDS011;42217;50.422;7.210;2023-05-10T10:22:45;267.00;;;255.20;;
56307;SDS011;42217;50.422;7.210;2023-05-10T10:25:12;321.73;;;305.90;;
56307;SDS011;42217;50.422;7.210;2023-05-10T10:36:17;221.48;;;211.70;;
56307;SDS011;42217;50.422;7.210;2023-05-10T10:41:32;255.30;;;243.90;;
56307;SDS011;42217;50.422;7.210;2023-05-10T10:49:25;235.80;;;225.38;;
56307;SDS011;42217;50.422;7.210;2023-05-10T10:54:40;217.43;;;207.77;;
56307;SDS011;42217;50.422;7.210;2023-05-10T10:57:13;214.65;;;205.13;;
56307;SDS011;42217;50.422;7.210;2023-05-10T10:59:43;243.77;;;233.05;;
56307;SDS011;42217;50.422;7.210;2023-05-10T11:02:09;230.18;;;219.95;;
56307;SDS011;42217;50.422;7.210;2023-05-10T11:04:41;221.25;;;211.43;;
56307;SDS011;42217;50.422;7.210;2023-05-10T11:07:18;217.52;;;207.93;;
56307;SDS011;42217;50.422;7.210;2023-05-10T11:09:45;208.80;;;199.20;;
56307;SDS011;42217;50.422;7.210;2023-05-10T11:12:12;238.27;;;227.80;;
56307;SDS011;42217;50.422;7.210;2023-05-10T11:14:37;198.45;;;188.90;;
56307;SDS011;42217;50.422;7.210;2023-05-10T11:17:37;232.75;;;222.05;;
56307;SDS011;42217;50.422;7.210;2023-05-10T11:20:09;198.45;;;189.75;;
56307;SDS011;42217;50.422;7.210;2023-05-10T11:22:54;190.05;;;181.52;;
56307;SDS011;42217;50.422;7.210;2023-05-10T11:25:26;188.48;;;180.00;;
56307;SDS011;42217;50.422;7.210;2023-05-10T11:27:53;311.13;;;295.73;;
56307;SDS011;42217;50.422;7.210;2023-05-10T11:30:19;210.73;;;200.77;;
56307;SDS011;42217;50.422;7.210;2023-05-10T11:32:45;209.73;;;199.85;;
56307;SDS011;42217;50.422;7.210;2023-05-10T11:35:11;145.27;;;138.88;;
56307;SDS011;42217;50.422;7.210;2023-05-10T11:37:38;155.43;;;148.45;;
56307;SDS011;42217;50.422;7.210;2023-05-10T11:40:08;137.90;;;131.73;;
56307;SDS011;42217;50.422;7.210;2023-05-10T11:42:38;172.73;;;165.02;;
56307;SDS011;42217;50.422;7.210;2023-05-10T11:45:03;166.68;;;159.27;;
56307;SDS011;42217;50.422;7.210;2023-05-10T11:47:30;133.88;;;127.88;;
56307;SDS011;42217;50.422;7.210;2023-05-10T11:49:56;131.45;;;125.65;;
56307;SDS011;42217;50.422;7.210;2023-05-10T11:52:23;124.78;;;119.18;;
56307;SDS011;42217;50.422;7.210;2023-05-10T11:54:52;120.00;;;114.70;;
56307;SDS011;42217;50.422;7.210;2023-05-10T11:57:18;146.75;;;140.30;;
56307;SDS011;42217;50.422;7.210;2023-05-10T11:59:45;143.82;;;137.35;;
56307;SDS011;42217;50.422;7.210;2023-05-10T12:02:13;170.38;;;162.75;;
56307;SDS011;42217;50.422;7.210;2023-05-10T12:04:39;176.30;;;168.55;;
56307;SDS011;42217;50.422;7.210;2023-05-10T12:07:05;180.15;;;172.10;;
56307;SDS011;42217;50.422;7.210;2023-05-10T12:09:31;138.27;;;132.20;;
56307;SDS011;42217;50.422;7.210;2023-05-10T12:11:56;155.07;;;148.10;;
56307;SDS011;42217;50.422;7.210;2023-05-10T12:14:22;126.88;;;121.32;;
56307;SDS011;42217;50.422;7.210;2023-05-10T12:16:49;141.55;;;135.20;;
56307;SDS011;42217;50.422;7.210;2023-05-10T12:19:18;146.30;;;139.75;;
56307;SDS011;42217;50.422;7.210;2023-05-10T12:21:45;134.13;;;128.13;;
56307;SDS011;42217;50.422;7.210;2023-05-10T12:24:11;180.77;;;172.60;;
56307;SDS011;42217;50.422;7.210;2023-05-10T12:26:38;156.35;;;149.45;;
56307;SDS011;42217;50.422;7.210;2023-05-10T12:29:14;129.00;;;123.13;;
56307;SDS011;42217;50.422;7.210;2023-05-10T12:31:57;136.38;;;129.88;;
56307;SDS011;42217;50.422;7.210;2023-05-10T12:36:51;130.15;;;124.25;;
56307;SDS011;42217;50.422;7.210;2023-05-10T12:39:17;137.63;;;131.52;;
56307;SDS011;42217;50.422;7.210;2023-05-10T12:41:43;131.98;;;126.15;;
56307;SDS011;42217;50.422;7.210;2023-05-10T12:44:09;127.28;;;121.60;;
56307;SDS011;42217;50.422;7.210;2023-05-10T12:46:35;136.40;;;130.30;;
56307;SDS011;42217;50.422;7.210;2023-05-10T12:49:00;139.45;;;133.27;;
56307;SDS011;42217;50.422;7.210;2023-05-10T12:51:26;129.40;;;123.70;;
56307;SDS011;42217;50.422;7.210;2023-05-10T12:53:52;128.80;;;123.13;;
56307;SDS011;42217;50.422;7.210;2023-05-10T12:56:17;131.80;;;125.95;;
56307;SDS011;42217;50.422;7.210;2023-05-10T12:58:43;136.32;;;130.27;;
56307;SDS011;42217;50.422;7.210;2023-05-10T13:01:12;161.00;;;153.82;;
56307;SDS011;42217;50.422;7.210;2023-05-10T13:03:39;171.25;;;163.68;;
56307;SDS011;42217;50.422;7.210;2023-05-10T13:06:04;470.15;;;444.42;;
56307;SDS011;42217;50.422;7.210;2023-05-10T13:08:31;300.65;;;286.40;;
56307;SDS011;42217;50.422;7.210;2023-05-10T13:10:59;214.55;;;204.02;;
56307;SDS011;42217;50.422;7.210;2023-05-10T13:13:27;222.10;;;210.57;;
56307;SDS011;42217;50.422;7.210;2023-05-10T13:15:53;181.73;;;173.52;;
56307;SDS011;42217;50.422;7.210;2023-05-10T13:18:19;247.85;;;236.10;;
56307;SDS011;42217;50.422;7.210;2023-05-10T13:20:45;240.90;;;229.95;;
56307;SDS011;42217;50.422;7.210;2023-05-10T13:23:11;318.98;;;303.38;;
56307;SDS011;42217;50.422;7.210;2023-05-10T13:25:36;376.05;;;357.15;;
56307;SDS011;42217;50.422;7.210;2023-05-10T13:28:02;253.02;;;241.73;;
56307;SDS011;42217;50.422;7.210;2023-05-10T13:30:28;211.98;;;202.45;;
56307;SDS011;42217;50.422;7.210;2023-05-10T13:32:54;282.90;;;270.17;;
56307;SDS011;42217;50.422;7.210;2023-05-10T13:35:19;287.05;;;274.05;;
56307;SDS011;42217;50.422;7.210;2023-05-10T13:37:45;239.32;;;228.70;;
56307;SDS011;42217;50.422;7.210;2023-05-10T13:40:11;171.20;;;163.60;;
56307;SDS011;42217;50.422;7.210;2023-05-10T13:42:37;215.43;;;205.60;;
56307;SDS011;42217;50.422;7.210;2023-05-10T13:45:03;169.45;;;161.80;;
56307;SDS011;42217;50.422;7.210;2023-05-10T13:47:29;170.02;;;162.40;;
56307;SDS011;42217;50.422;7.210;2023-05-10T13:49:54;167.95;;;160.55;;
56307;SDS011;42217;50.422;7.210;2023-05-10T13:52:21;166.88;;;159.40;;
56307;SDS011;42217;50.422;7.210;2023-05-10T13:54:46;172.48;;;164.65;;
56307;SDS011;42217;50.422;7.210;2023-05-10T13:57:12;236.13;;;225.43;;
56307;SDS011;42217;50.422;7.210;2023-05-10T13:59:38;219.73;;;210.05;;
56307;SDS011;42217;50.422;7.210;2023-05-10T14:02:04;164.23;;;156.82;;
56307;SDS011;42217;50.422;7.210;2023-05-10T14:04:31;180.52;;;172.40;;
56307;SDS011;42217;50.422;7.210;2023-05-10T14:06:57;188.27;;;179.73;;
56307;SDS011;42217;50.422;7.210;2023-05-10T14:09:22;176.57;;;168.70;;
56307;SDS011;42217;50.422;7.210;2023-05-10T14:11:48;197.43;;;188.55;;
56307;SDS011;42217;50.422;7.210;2023-05-10T14:14:14;194.98;;;186.27;;
56307;SDS011;42217;50.422;7.210;2023-05-10T14:16:43;201.93;;;192.80;;
56307;SDS011;42217;50.422;7.210;2023-05-10T14:19:09;240.98;;;229.88;;
56307;SDS011;42217;50.422;7.210;2023-05-10T14:21:36;274.67;;;261.15;;
56307;SDS011;42217;50.422;7.210;2023-05-10T14:24:01;228.18;;;217.93;;
56307;SDS011;42217;50.422;7.210;2023-05-10T14:26:27;161.75;;;154.50;;
56307;SDS011;42217;50.422;7.210;2023-05-10T14:28:53;186.25;;;177.40;;
56307;SDS011;42217;50.422;7.210;2023-05-10T14:31:19;151.02;;;144.32;;
56307;SDS011;42217;50.422;7.210;2023-05-10T14:33:45;194.35;;;185.50;;